Home > Products > Valid Products > TAF

000
FTUS42 KJAX 050406 AAC
TAFJAX
TAF AMD
KJAX 050406Z 0504/0524 VRB03KT 5SM BR FEW150 BKN250
      TEMPO 0506/0510 6SM BR
     FM051200 23002KT P6SM BKN250
     FM051400 25005KT P6SM SCT030 SCT120
     FM051800 24007KT P6SM VCTS SCT040CB
     FM052000 15008KT P6SM VCTS SCT040CB BKN250
      TEMPO 0520/0524 VRB15G25KT 3SM TSRA BR BKN030CB OVC060=



000
FTUS42 KJAX 050404 AAB
TAFCRG
TAF AMD
KCRG 050404Z 0504/0524 VRB02KT 2SM BR SCT150 BKN250
      TEMPO 0507/0511 5SM BR
     FM051100 23002KT 6SM HZ SCT250
     FM051400 25005KT P6SM SCT030 SCT120
     FM051800 24007KT P6SM VCTS SCT040CB
     FM052000 14008KT P6SM VCTS SCT040CB BKN250
      TEMPO 0520/0524 VRB15G25KT 3SM TSRA BR BKN030CB OVC060=



000
FTUS42 KJAX 050316 AAA
TAFCRG
TAF AMD
KCRG 050316Z 0503/0524 VRB02KT 4SM BR SCT150 BKN250
      TEMPO 0504/0507 6SM BR
     FM051100 23002KT P6SM SCT250
     FM051400 25005KT P6SM SCT030 SCT120
     FM051800 24007KT P6SM VCTS SCT040CB
     FM052000 14008KT P6SM VCTS SCT040CB BKN250
      TEMPO 0520/0524 VRB15G25KT 3SM TSRA BR BKN030CB OVC060=



000
FTUS42 KJAX 042321
TAFSSI
TAF
KSSI 042321Z 0500/0524 19005KT P6SM VCSH SCT050 BKN120
     FM050500 22005KT P6SM SCT120 BKN250
     FM051400 25007KT P6SM SCT030 SCT120
     FM052000 15008KT P6SM VCTS SCT040CB BKN250
      TEMPO 0520/0524 VRB15G25KT 3SM TSRA BR BKN030CB OVC060=



000
FTUS42 KJAX 042321
TAFCRG
TAF
KCRG 042321Z 0500/0524 VRB03KT P6SM SCT050 BKN120
     FM050300 VRB03KT P6SM SCT120 BKN250
     FM051400 25005KT P6SM SCT030 SCT120
     FM051800 24007KT P6SM VCTS SCT040CB
     FM052000 14008KT P6SM VCTS SCT040CB BKN250
      TEMPO 0520/0524 VRB15G25KT 3SM TSRA BR BKN030CB OVC060=



000
FTUS42 KJAX 042321
TAFGNV
TAF
KGNV 042321Z 0500/0524 VRB03KT P6SM SCT120 BKN250
     FM051400 24005KT P6SM SCT030 SCT120
     FM051800 29006KT P6SM VCTS SCT040CB
      TEMPO 0519/0523 VRB15G25KT 3SM TSRA BR BKN030CB OVC060=



000
FTUS42 KJAX 042321
TAFJAX
TAF
KJAX 042321Z 0500/0524 VRB03KT P6SM SCT050 BKN120
     FM050300 VRB03KT P6SM SCT120 BKN250
     FM051400 25005KT P6SM SCT030 SCT120
     FM051800 24007KT P6SM VCTS SCT040CB
     FM052000 15008KT P6SM VCTS SCT040CB BKN250
      TEMPO 0520/0524 VRB15G25KT 3SM TSRA BR BKN030CB OVC060=



000
FTUS42 KJAX 041856 AAA
TAFSSI
TAF AMD
KSSI 041856Z 0419/0518 16010KT P6SM VCTS SCT050CB BKN250
      TEMPO 0419/0421 VRB15G25KT 3SM TSRA BKN030CB
     FM050100 17008KT P6SM VCSH SCT050 BKN100
     FM050300 18007KT P6SM BKN100
     FM051300 25006KT P6SM SCT030 BKN250=



000
FTUS42 KJAX 041841 AAB
TAFJAX
TAF AMD
KJAX 041841Z 0419/0518 22008G15KT P6SM VCTS SCT030CB BKN060
      TEMPO 0419/0420 VRB20G30KT 2SM TSRA BKN025CB
     FM042000 17006KT P6SM VCTS SCT050CB BKN150
     FM050000 18005KT P6SM VCSH SCT050 BKN100
     FM050200 19004KT P6SM SCT120 BKN200
     FM051700 25006KT P6SM VCTS SCT040CB BKN200=



000
FTUS42 KJAX 041837 AAA
TAFCRG
TAF AMD
KCRG 041837Z 0419/0518 12010KT P6SM VCTS SCT040CB BKN250
      TEMPO 0419/0420 VRB15G25KT 3SM TSRA BKN030CB
     FM042000 15008KT P6SM VCTS SCT050CB BKN150
     FM050000 18006KT P6SM VCSH SCT050 BKN120
     FM050200 19004KT P6SM FEW050 SCT120 BKN200
     FM051700 25006KT P6SM VCTS SCT040CB BKN200=



000
FTUS42 KJAX 041837 AAA
TAFCRG
TAF AMD
KCRG 041837Z 0419/0518 12010KT P6SM VCTS SCT040CB BKN250
      TEMPO 0419/0420 VRB15G25KT 3SM TSRA BKN030CB
     FM042000 15008KT P6SM VCTS SCT050CB BKN150
     FM050000 18006KT P6SM VCSH SCT050 BKN120
     FM050200 19004KT P6SM FEW050 SCT120 BKN200
     FM051700 25006KT P6SM VCTS SCT040CB BKN200=



000
FTUS42 KJAX 041734
TAFSSI
TAF
KSSI 041734Z 0418/0518 22007KT P6SM SCT040 SCT250
     FM041900 15009KT P6SM VCTS SCT050CB BKN250
     FM050100 17008KT P6SM VCSH SCT050 BKN100
     FM050300 18007KT P6SM BKN100
     FM051300 25006KT P6SM SCT030 BKN250=



000
FTUS42 KJAX 041734
TAFJAX
TAF
KJAX 041734Z 0418/0518 22008KT P6SM VCTS SCT030CB BKN250
      TEMPO 0418/0420 VRB15G25KT 3SM TSRA BKN030CB
     FM042000 17006KT P6SM VCTS SCT050CB BKN150
     FM050000 18005KT P6SM VCSH SCT050 BKN100
     FM050200 19004KT P6SM SCT120 BKN200
     FM051700 25006KT P6SM VCTS SCT040CB BKN200=



000
FTUS42 KJAX 041734
TAFGNV
TAF
KGNV 041734Z 0418/0518 24007KT 5SM TSRA FEW015 SCT030CB BKN050
      TEMPO 0418/0419 VRB15G25KT 3SM TSRA BKN030CB
     FM041900 24008KT P6SM VCTS SCT040CB BKN200
     FM042300 19005KT P6SM VCSH SCT050 BKN120
     FM050100 20003KT P6SM FEW050 SCT120 BKN200
     FM051700 27006KT P6SM VCTS SCT040CB BKN200=



000
FTUS42 KJAX 041734
TAFCRG
TAF
KCRG 041734Z 0418/0518 24007KT P6SM VCTS SCT040CB BKN250
      TEMPO 0418/0420 VRB15G25KT 3SM TSRA BKN030CB
     FM042000 15008KT P6SM VCTS SCT050CB BKN150
     FM050000 18006KT P6SM VCSH SCT050 BKN120
     FM050200 19004KT P6SM FEW050 SCT120 BKN200
     FM051700 25006KT P6SM VCTS SCT040CB BKN200=



000
FTUS42 KJAX 041703 AAB
TAFCRG
TAF AMD
KCRG 041703Z 0417/0512 24007KT P6SM VCTS SCT040CB BKN250
      TEMPO 0417/0419 VRB15G25KT 3SM TSRA BKN030CB
     FM041900 15008KT P6SM VCTS SCT050CB BKN150
     FM050000 18006KT P6SM VCSH SCT050 BKN120
     FM050200 19004KT P6SM FEW050 SCT120 BKN200=



000
FTUS42 KJAX 041703 AAB
TAFCRG
TAF AMD
KCRG 041703Z 0417/0512 24007KT P6SM VCTS SCT040CB BKN250
      TEMPO 0417/0419 VRB15G25KT 3SM TSRA BKN030CB
     FM041900 15008KT P6SM VCTS SCT050CB BKN150
     FM050000 18006KT P6SM VCSH SCT050 BKN120
     FM050200 19004KT P6SM FEW050 SCT120 BKN200=



000
FTUS42 KJAX 041659 AAA
TAFCRG
TAF AMD
KCRG 041659Z 0417/0512 24007KT P6SM VCTS SCT040CB BKN250
     FM041900 15008KT P6SM VCTS SCT050CB BKN150
     FM050000 18006KT P6SM VCSH SCT050 BKN120
     FM050200 19004KT P6SM FEW050 SCT120 BKN200=



000
FTUS42 KJAX 041659 AAA
TAFCRG
TAF AMD
KCRG 041659Z 0417/0512 24007KT P6SM VCTS SCT040CB BKN250
     FM041900 15008KT P6SM VCTS SCT050CB BKN150
     FM050000 18006KT P6SM VCSH SCT050 BKN120
     FM050200 19004KT P6SM FEW050 SCT120 BKN200=



000
FTUS42 KJAX 041657 AAB
TAFJAX
TAF AMD
KJAX 041657Z 0417/0512 22008KT P6SM VCTS SCT030CB BKN250
      TEMPO 0417/0419 VRB15G25KT 3SM TSRA BKN030CB
     FM041900 17006KT P6SM VCTS SCT050CB BKN150
     FM050000 18005KT P6SM VCSH SCT050 BKN100
     FM050200 17004KT P6SM SCT120 BKN200=



000
FTUS42 KJAX 041639 AAA
TAFGNV
TAF AMD
KGNV 041639Z 0417/0512 24007KT P6SM VCTS SCT030CB BKN100
      TEMPO 0417/0419 VRB15G25KT 1SM +TSRA BKN015CB
     FM042300 19005KT P6SM VCSH SCT050 BKN120
     FM050100 20003KT P6SM FEW050 SCT120 BKN200=



000
FTUS42 KJAX 041120
TAFJAX
TAF
KJAX 041120Z 0412/0512 24004KT P6SM FEW120 BKN250
     FM041400 25007KT P6SM SCT040 SCT250
     FM041900 17006KT P6SM VCTS SCT050CB BKN150
     FM050000 18005KT P6SM VCSH SCT050 BKN100
     FM050200 17004KT P6SM SCT120 BKN200=



000
FTUS42 KJAX 041120
TAFSSI
TAF
KSSI 041120Z 0412/0512 24007KT P6SM FEW150 SCT250
     FM041400 24007KT P6SM SCT040 SCT250
     FM041900 15009KT P6SM VCTS SCT050CB BKN250
     FM050100 17008KT P6SM VCSH SCT050 BKN100
     FM050300 18007KT P6SM BKN100=



000
FTUS42 KJAX 041120
TAFCRG
TAF
KCRG 041120Z 0412/0512 25005KT P6SM FEW120 SCT250
     FM041400 24007KT P6SM SCT040 SCT250
     FM041900 15008KT P6SM VCTS SCT050CB BKN150
     FM050000 18006KT P6SM VCSH SCT050 BKN120
     FM050200 19004KT P6SM FEW050 SCT120 BKN200=



000
FTUS42 KJAX 041120
TAFGNV
TAF
KGNV 041120Z 0412/0512 20002KT P6SM FEW100 SCT250
     FM041500 23006KT P6SM SCT025 BKN250
     FM041630 24007KT P6SM VCTS SCT040CB BKN150
      TEMPO 0417/0419 VRB15G25KT 3SM TSRA BKN025CB
     FM042300 19005KT P6SM VCSH SCT050 BKN120
     FM050100 20003KT P6SM FEW050 SCT120 BKN200=



000
FTUS42 KJAX 040540
TAFSSI
TAF
KSSI 040540Z 0406/0506 22007KT P6SM FEW150 SCT250
     FM041400 24007KT P6SM SCT040 SCT250
     FM041900 15009KT P6SM VCTS SCT050CB BKN250
     FM050100 17008KT P6SM VCSH SCT050 BKN100
     FM050200 18007KT P6SM BKN100=



000
FTUS42 KJAX 040540
TAFCRG
TAF
KCRG 040540Z 0406/0506 22005KT P6SM FEW060 SCT120 BKN250
     FM041400 24007KT P6SM SCT040 SCT250
     FM041900 15008KT P6SM VCTS SCT050CB BKN250
     FM050000 18006KT P6SM VCSH SCT050 BKN120
     FM050200 19004KT P6SM FEW050 SCT120 BKN200=



000
FTUS42 KJAX 040540
TAFGNV
TAF
KGNV 040540Z 0406/0506 20002KT P6SM SCT120 BKN250
     FM041500 25006KT P6SM VCSH SCT030 BKN200
     FM041630 23007KT P6SM VCTS SCT040CB BKN150
      TEMPO 0417/0419 VRB15G25KT 3SM TSRA BKN030CB
     FM042300 19005KT P6SM VCSH SCT050 BKN120
     FM050100 20003KT P6SM FEW050 SCT120 BKN200=



000
FTUS42 KJAX 040540
TAFJAX
TAF
KJAX 040540Z 0406/0506 23004KT P6SM FEW050 SCT120 BKN250
     FM041400 25007KT P6SM SCT040 SCT250
     FM041900 17006KT P6SM VCTS SCT050CB BKN250
     FM050000 18005KT P6SM VCSH SCT050 BKN120
     FM050200 17004KT P6SM SCT120 BKN200=



000
FTUS42 KJAX 040301 AAA
TAFSSI
TAF AMD
KSSI 040301Z 0403/0424 18011G17KT P6SM FEW050 SCT250
     FM040600 22008KT P6SM SCT080 SCT250
     FM041500 24007KT P6SM SCT040 SCT250
     FM041900 15009KT P6SM VCTS SCT050CB BKN250=



000
FTUS42 KJAX 032321
TAFJAX
TAF
KJAX 032321Z 0400/0424 18004KT P6SM SCT050 SCT250
     FM040400 00000KT P6SM SCT100 SCT250
     FM041500 24007KT P6SM SCT040 SCT250
     FM042100 16008KT P6SM VCTS SCT050CB BKN250=



000
FTUS42 KJAX 032321
TAFCRG
TAF
KCRG 032321Z 0400/0424 16005KT P6SM SCT050 SCT250
     FM040300 20003KT P6SM SCT100 SCT250
     FM041500 24007KT P6SM SCT040 SCT250
     FM042000 15008KT P6SM VCTS SCT050CB BKN250=



000
FTUS42 KJAX 032321
TAFGNV
TAF
KGNV 032321Z 0400/0424 22005KT P6SM SCT050 SCT250
     FM040400 00000KT P6SM SCT100 SCT250
     FM041500 25006KT P6SM SCT040 SCT250
     FM042100 23007KT P6SM VCTS SCT050CB BKN250=



000
FTUS42 KJAX 032321
TAFSSI
TAF
KSSI 032321Z 0400/0424 18007KT P6SM SCT050 SCT250
     FM040500 23006KT P6SM SCT100 SCT250
     FM041500 24007KT P6SM SCT040 SCT250
     FM041900 15009KT P6SM VCTS SCT050CB BKN250=



000
FTUS42 KJAX 031809 AAA
TAFCRG
TAF AMD
KCRG 031809Z 0318/0418 23007KT P6SM SCT050 SCT250
     FM032000 16008KT P6SM SCT050 SCT250
     FM040000 19007KT P6SM SCT050 SCT250
     FM041500 26006KT P6SM SKC=



000
FTUS42 KJAX 031809 AAA
TAFCRG
TAF AMD
KCRG 031809Z 0318/0418 23007KT P6SM SCT050 SCT250
     FM032000 16008KT P6SM SCT050 SCT250
     FM040000 19007KT P6SM SCT050 SCT250
     FM041500 26006KT P6SM SKC=



000
FTUS42 KJAX 031808 AAA
TAFJAX
TAF AMD
KJAX 031808Z 0318/0418 24005KT P6SM SCT050 BKN250
     FM032200 22007KT P6SM SCT050 SCT250
     FM040000 19005KT P6SM SCT050 SCT250
     FM041500 25007KT P6SM FEW035 SCT050 BKN250=



000
FTUS42 KJAX 031721
TAFJAX
TAF
KJAX 031721Z 0318/0418 28008G15KT P6SM FEW040
     FM032200 22007KT P6SM SCT050 SCT250
     FM040000 19005KT P6SM SCT050 SCT250
     FM041500 25007KT P6SM FEW035 SCT050 BKN250=



000
FTUS42 KJAX 031721
TAFGNV
TAF
KGNV 031721Z 0318/0418 25008KT P6SM FEW030 SCT045
     FM032000 26009KT P6SM VCTS SCT050CB
     FM032300 24004KT P6SM FEW050 BKN250
     FM041500 25007KT P6SM VCTS FEW035 SCT050CB BKN250=



000
FTUS42 KJAX 031721
TAFSSI
TAF
KSSI 031721Z 0318/0418 25012G17KT P6SM FEW035 SCT150
     FM032200 20010KT P6SM FEW060 SCT200
     FM040600 22008KT P6SM BKN250
     FM041500 24008G14KT P6SM FEW035 SCT250=



000
FTUS42 KJAX 031721
TAFCRG
TAF
KCRG 031721Z 0318/0418 26009G15KT P6SM FEW040
     FM032000 16008KT P6SM SCT050 SCT250
     FM040000 19007KT P6SM SCT050 SCT250
     FM041500 26006KT P6SM SKC=



000
FTUS42 KJAX 031721
TAFJAX
TAF
KJAX 031721Z 0318/0418 28008G15KT P6SM FEW040
     FM032200 22007KT P6SM SCT050 SCT250
     FM040000 19005KT P6SM SCT050 SCT250
     FM041500 25007KT P6SM FEW035 SCT050 BKN250=



000
FTUS42 KJAX 031721
TAFGNV
TAF
KGNV 031721Z 0318/0418 25008KT P6SM FEW030 SCT045
     FM032000 26009KT P6SM VCTS SCT050CB
     FM032300 24004KT P6SM FEW050 BKN250
     FM041500 25007KT P6SM VCTS FEW035 SCT050CB BKN250=



000
FTUS42 KJAX 031721
TAFSSI
TAF
KSSI 031721Z 0318/0418 25012G17KT P6SM FEW035 SCT150
     FM032200 20010KT P6SM FEW060 SCT200
     FM040600 22008KT P6SM BKN250
     FM041500 24008G14KT P6SM FEW035 SCT250=



000
FTUS42 KJAX 031721
TAFCRG
TAF
KCRG 031721Z 0318/0418 26009G15KT P6SM FEW040
     FM032000 16008KT P6SM SCT050 SCT250
     FM040000 19007KT P6SM SCT050 SCT250
     FM041500 26006KT P6SM SKC=



000
FTUS42 KJAX 031633 AAA
TAFSSI
TAF AMD
KSSI 031633Z 0317/0412 25012G17KT P6SM FEW035 SCT150
     FM032200 20010KT P6SM FEW060 SCT200
     FM040600 22008KT P6SM BKN250=



000
FTUS42 KJAX 031633 AAA
TAFSSI
TAF AMD
KSSI 031633Z 0317/0412 25012G17KT P6SM FEW035 SCT150
     FM032200 20010KT P6SM FEW060 SCT200
     FM040600 22008KT P6SM BKN250=



000
FTUS42 KJAX 031120
TAFSSI
TAF
KSSI 031120Z 0312/0412 25007KT P6SM FEW035 SCT150
     FM032100 20010KT P6SM FEW060 SCT200
     FM040600 22008KT P6SM BKN250=



000
FTUS42 KJAX 031120
TAFCRG
TAF
KCRG 031120Z 0312/0412 24005KT P6SM SCT150 BKN250
     FM031330 27008KT P6SM FEW035 SCT250
     FM032000 16008KT P6SM SCT050 SCT250
     FM040000 19007KT P6SM SCT050 SCT250=



000
FTUS42 KJAX 031120
TAFSSI
TAF
KSSI 031120Z 0312/0412 25007KT P6SM FEW035 SCT150
     FM032100 20010KT P6SM FEW060 SCT200
     FM040600 22008KT P6SM BKN250=



000
FTUS42 KJAX 031120
TAFJAX
TAF
KJAX 031120Z 0312/0412 25005KT P6SM SCT150 BKN250
     FM031330 26008KT P6SM FEW035 SCT250
     FM032000 22008KT P6SM SCT050 SCT250
     FM040000 19005KT P6SM SCT050 SCT250=



000
FTUS42 KJAX 031120
TAFJAX
TAF
KJAX 031120Z 0312/0412 25005KT P6SM SCT150 BKN250
     FM031330 26008KT P6SM FEW035 SCT250
     FM032000 22008KT P6SM SCT050 SCT250
     FM040000 19005KT P6SM SCT050 SCT250=



000
FTUS42 KJAX 031120
TAFGNV
TAF
KGNV 031120Z 0312/0412 23003KT P6SM BKN150
     FM031400 26006KT P6SM FEW035 BKN250
     FM031900 26006KT P6SM VCTS SCT050CB
     FM032300 24004KT P6SM FEW050 BKN250=



000
FTUS42 KJAX 031120
TAFGNV
TAF
KGNV 031120Z 0312/0412 23003KT P6SM BKN150
     FM031400 26006KT P6SM FEW035 BKN250
     FM031900 26006KT P6SM VCTS SCT050CB
     FM032300 24004KT P6SM FEW050 BKN250=



000
FTUS42 KJAX 031120
TAFCRG
TAF
KCRG 031120Z 0312/0412 24005KT P6SM SCT150 BKN250
     FM031330 27008KT P6SM FEW035 SCT250
     FM032000 16008KT P6SM SCT050 SCT250
     FM040000 19007KT P6SM SCT050 SCT250=



000
FTUS42 KJAX 030539
TAFGNV
TAF
KGNV 030539Z 0306/0406 21002KT P6SM BKN150
     FM031400 26006KT P6SM FEW035 BKN250
     FM031900 25006KT P6SM VCTS SCT050CB
     FM032300 24004KT P6SM FEW050 BKN250=



000
FTUS42 KJAX 030539
TAFSSI
TAF
KSSI 030539Z 0306/0406 24006KT P6SM FEW020 SCT080 BKN150
     FM031400 25008KT P6SM SCT045 SCT150
     FM031900 19009KT P6SM FEW060 SCT200=



000
FTUS42 KJAX 030539
TAFCRG
TAF
KCRG 030539Z 0306/0406 24004KT P6SM SCT120 BKN200
     FM031300 27008KT P6SM FEW035 SCT250
     FM032000 16008KT P6SM SCT050 SCT250
     FM040000 19007KT P6SM SCT050 SCT250=



000
FTUS42 KJAX 030539
TAFJAX
TAF
KJAX 030539Z 0306/0406 23003KT P6SM SCT120 BKN200
     FM031400 26008KT P6SM FEW035 SCT250
     FM032000 22008KT P6SM SCT050 SCT250
     FM040000 19005KT P6SM SCT050 SCT250=



000
FTUS42 KJAX 030539
TAFGNV
TAF
KGNV 030539Z 0306/0406 21002KT P6SM BKN150
     FM031400 26006KT P6SM FEW035 BKN250
     FM031900 25006KT P6SM VCTS SCT050CB
     FM032300 24004KT P6SM FEW050 BKN250=



000
FTUS42 KJAX 030539
TAFSSI
TAF
KSSI 030539Z 0306/0406 24006KT P6SM FEW020 SCT080 BKN150
     FM031400 25008KT P6SM SCT045 SCT150
     FM031900 19009KT P6SM FEW060 SCT200=



000
FTUS42 KJAX 030539
TAFCRG
TAF
KCRG 030539Z 0306/0406 24004KT P6SM SCT120 BKN200
     FM031300 27008KT P6SM FEW035 SCT250
     FM032000 16008KT P6SM SCT050 SCT250
     FM040000 19007KT P6SM SCT050 SCT250=



000
FTUS42 KJAX 030539
TAFJAX
TAF
KJAX 030539Z 0306/0406 23003KT P6SM SCT120 BKN200
     FM031400 26008KT P6SM FEW035 SCT250
     FM032000 22008KT P6SM SCT050 SCT250
     FM040000 19005KT P6SM SCT050 SCT250=



000
FTUS42 KJAX 022320
TAFCRG
TAF
KCRG 022320Z 0300/0324 25007KT P6SM VCSH SCT040 BKN060
     FM030200 25004KT P6SM SCT050 SCT150 BKN250
     FM031300 27008KT P6SM SCT035 BKN250
     FM032000 18008KT P6SM SCT250=



000
FTUS42 KJAX 022320
TAFSSI
TAF
KSSI 022320Z 0300/0324 22008KT P6SM -RA VCTS SCT040CB BKN050 BKN250
      TEMPO 0300/0301 24015G25KT TSRA BKN025CB
     FM030300 24006KT P6SM SCT050 BKN150
     FM031400 24008KT P6SM SCT030 SCT150 BKN250
     FM032100 19009KT P6SM SCT060 SCT150=



000
FTUS42 KJAX 022320
TAFJAX
TAF
KJAX 022320Z 0300/0324 25006KT P6SM -RA SCT060 BKN150
     FM030200 25003KT P6SM SCT050 SCT150 BKN250
     FM031400 26008KT P6SM SCT035 BKN250=



000
FTUS42 KJAX 022320
TAFGNV
TAF
KGNV 022320Z 0300/0324 25005KT P6SM SCT035 SCT110
     FM030100 24003KT P6SM SCT060 BKN150
     FM031400 27006KT P6SM SCT040 BKN150=



000
FTUS42 KJAX 022232 AAC
TAFSSI
TAF AMD
KSSI 022232Z 0223/0318 20008KT P6SM -RA VCTS SCT040CB BKN050 BKN250
      TEMPO 0223/0301 VRB15G35KT 3SM TSRA BR BKN025CB OVC090
     FM030100 24006KT P6SM SCT050 BKN250
     FM031400 25008KT P6SM SCT030 BKN250=



000
FTUS42 KJAX 022230 AAD
TAFCRG
TAF AMD
KCRG 022230Z 0223/0318 25008KT P6SM -RA SCT040 BKN060
     FM030100 25003KT P6SM SCT050 BKN250
     FM031400 26008KT P6SM SCT030 BKN250=



000
FTUS42 KJAX 022230 AAD
TAFCRG
TAF AMD
KCRG 022230Z 0223/0318 25008KT P6SM -RA SCT040 BKN060
     FM030100 25003KT P6SM SCT050 BKN250
     FM031400 26008KT P6SM SCT030 BKN250=



000
FTUS42 KJAX 022230 AAB
TAFGNV
TAF AMD
KGNV 022230Z 0223/0318 27009KT P6SM -RA SCT040 BKN110
     FM030100 26003KT P6SM SCT060 BKN250
     FM031400 25006KT P6SM SCT030 BKN250=



000
FTUS42 KJAX 022208 AAD
TAFJAX
TAF AMD
KJAX 022208Z 0222/0318 21011KT P6SM -RA BKN040 BKN060
     FM030200 25003KT P6SM SCT050 BKN250
     FM031400 26008KT P6SM SCT030 BKN250=



000
FTUS42 KJAX 022157 AAC
TAFCRG
TAF AMD
KCRG 022157Z 0222/0318 22009G18KT P6SM -RA SCT040 BKN060
      TEMPO 0222/0224 VRB15G30KT 3SM TSRA BR SCT020 BKN040CB OVC090
     FM030100 25003KT P6SM SCT050 BKN250
     FM031400 26008KT P6SM SCT030 BKN250=



000
FTUS42 KJAX 022157 AAC
TAFCRG
TAF AMD
KCRG 022157Z 0222/0318 22009G18KT P6SM -RA SCT040 BKN060
      TEMPO 0222/0224 VRB15G30KT 3SM TSRA BR SCT020 BKN040CB OVC090
     FM030100 25003KT P6SM SCT050 BKN250
     FM031400 26008KT P6SM SCT030 BKN250=



000
FTUS42 KJAX 022148 AAB
TAFSSI
TAF AMD
KSSI 022148Z 0222/0318 20008KT P6SM VCTS SCT040CB BKN080 BKN250
      TEMPO 0222/0301 VRB15G35KT 3SM TSRA BR BKN025CB OVC090
     FM030200 24006KT P6SM SCT050 BKN250
     FM031400 25008KT P6SM SCT030 BKN250=



000
FTUS42 KJAX 022138 AAB
TAFCRG
TAF AMD
KCRG 022138Z 0222/0318 22009G18KT P6SM VCTS SCT040CB BKN250
      TEMPO 0222/0224 VRB15G30KT 3SM TSRA BR SCT020 BKN040CB OVC090
     FM030100 25003KT P6SM SCT050 BKN250
     FM031400 26008KT P6SM SCT030 BKN250=



000
FTUS42 KJAX 022126 AAA
TAFGNV
TAF AMD
KGNV 022126Z 0221/0318 26010KT P6SM VCTS SCT040CB BKN150 BKN250
      TEMPO 0221/0223 VRB15G30KT 3SM TSRA BKN025CB
     FM022300 27009KT P6SM SCT040 BKN250
     FM030100 26003KT P6SM SCT060 BKN250
     FM031400 25006KT P6SM SCT030 BKN250=



000
FTUS42 KJAX 022046 AAC
TAFJAX
TAF AMD
KJAX 022046Z 0221/0318 21011KT P6SM SCT040 BKN250
      TEMPO 0221/0223 VRB15G40KT 3SM TSRA BR BKN025CB
     FM030200 25003KT P6SM SCT050 BKN250
     FM031400 26008KT P6SM SCT030 BKN250=



000
FTUS42 KJAX 022013 AAA
TAFCRG
TAF AMD
KCRG 022013Z 0220/0318 22009G18KT P6SM SCT040 BKN250
      TEMPO 0222/0302 VRB15G30KT 3SM TSRA BR SCT020 BKN040CB OVC090
     FM030200 25003KT P6SM SCT050 BKN250
     FM031400 26008KT P6SM SCT030 BKN250=



000
FTUS42 KJAX 022013 AAA
TAFCRG
TAF AMD
KCRG 022013Z 0220/0318 22009G18KT P6SM SCT040 BKN250
      TEMPO 0222/0302 VRB15G30KT 3SM TSRA BR SCT020 BKN040CB OVC090
     FM030200 25003KT P6SM SCT050 BKN250
     FM031400 26008KT P6SM SCT030 BKN250=



000
FTUS42 KJAX 022008 AAB
TAFJAX
TAF AMD
KJAX 022008Z 0220/0318 21011KT P6SM SCT040 BKN250
      TEMPO 0221/0301 VRB15G30KT 3SM TSRA BR BKN040CB OVC090
     FM030200 25003KT P6SM SCT050 BKN250
     FM031400 26008KT P6SM SCT030 BKN250=



000
FTUS42 KJAX 021925 AAA
TAFSSI
TAF AMD
KSSI 021925Z 0219/0318 24010G20KT P6SM SCT050 SCT250
     FM022100 20008KT P6SM VCSH SCT045 BKN080 BKN250
      TEMPO 0221/0301 VRB15G30KT 3SM TSRA BR SCT020 BKN040CB OVC090
     FM030200 24006KT P6SM SCT050 BKN250
     FM031400 25008KT P6SM SCT030 BKN250=



000
FTUS42 KJAX 021721
TAFJAX
TAF
KJAX 021721Z 0218/0318 26011KT P6SM VCTS SCT040CB BKN150 BKN250
      TEMPO 0218/0222 VRB15G30KT 3SM TSRA BR SCT020 BKN040CB OVC090
     FM030100 25003KT P6SM SCT050 BKN250
     FM031400 26008KT P6SM SCT030 BKN250=



000
FTUS42 KJAX 021721
TAFGNV
TAF
KGNV 021721Z 0218/0318 26010KT P6SM VCTS SCT040CB BKN150 BKN250
      TEMPO 0218/0220 VRB15G30KT 3SM TSRA BR SCT020 BKN040CB OVC090
     FM022200 27009KT P6SM SCT040 BKN250
     FM030100 26003KT P6SM SCT060 BKN250
     FM031400 25006KT P6SM SCT030 BKN250=



000
FTUS42 KJAX 021721
TAFSSI
TAF
KSSI 021721Z 0218/0318 24010KT P6SM VCTS SCT040CB BKN150 BKN250
      TEMPO 0219/0223 VRB15G30KT 3SM TSRA BR SCT020 BKN040CB OVC090
     FM030100 24006KT P6SM SCT050 BKN250
     FM031400 25008KT P6SM SCT030 BKN250=



000
FTUS42 KJAX 021721
TAFCRG
TAF
KCRG 021721Z 0218/0318 26011KT P6SM VCTS SCT040CB BKN150 BKN250
      TEMPO 0218/0222 VRB15G30KT 3SM TSRA BR SCT020 BKN040CB OVC090
     FM030100 25003KT P6SM SCT050 BKN250
     FM031400 26008KT P6SM SCT030 BKN250=



000
FTUS42 KJAX 021330 AAA
TAFGNV
TAF AMD
KGNV 021330Z 0214/0312 27007KT P6SM SCT100 SCT250
     FM021500 27010KT P6SM VCTS BKN045CB BKN150 BKN250
      TEMPO 0217/0221 VRB15G30KT 3SM TSRA BR SCT025 BKN040CB OVC090
     FM022100 27007KT P6SM VCTS SCT020 BKN040CB OVC150
     FM030200 24004KT P6SM BKN150 BKN250=



000
FTUS42 KJAX 021120
TAFSSI
TAF
KSSI 021120Z 0212/0312 25008KT P6SM SCT025 SCT250
     FM021700 18011KT P6SM VCTS BKN045CB BKN150 BKN250
      TEMPO 0218/0222 VRB15G30KT 3SM TSRA BR SCT025 BKN040CB OVC090
     FM022300 26008KT P6SM VCTS SCT020 BKN040CB OVC150
     FM030200 24006KT P6SM BKN150 BKN250=



000
FTUS42 KJAX 021120
TAFGNV
TAF
KGNV 021120Z 0212/0312 27007KT P6SM VCSH SCT025 SCT100 SCT250
     FM021500 27010KT P6SM VCTS BKN045CB BKN150 BKN250
      TEMPO 0215/0219 VRB15G30KT 3SM TSRA BR SCT025 BKN040CB OVC090
     FM022000 27007KT P6SM VCTS SCT020 BKN040CB OVC150
     FM030200 24004KT P6SM BKN150 BKN250=



000
FTUS42 KJAX 021120
TAFJAX
TAF
KJAX 021120Z 0212/0312 26009KT P6SM SCT025 SCT250
     FM021900 25011KT P6SM VCTS BKN045CB BKN150 BKN250
      TEMPO 0219/0223 VRB15G30KT 3SM TSRA BR SCT025 BKN040CB OVC090
     FM030000 26008KT P6SM VCSH SCT020 BKN050 OVC120
     FM030300 24004KT P6SM BKN150 BKN250=



000
FTUS42 KJAX 021120
TAFCRG
TAF
KCRG 021120Z 0212/0312 26010KT P6SM SCT025 SCT250
     FM021900 23011KT P6SM VCTS BKN045CB BKN150 BKN250
      TEMPO 0219/0223 VRB15G30KT 3SM TSRA BR SCT025 BKN040CB OVC090
     FM030000 26009KT P6SM VCSH SCT020 BKN050 OVC120
     FM030300 24005KT P6SM BKN150 BKN250=



000
FTUS42 KJAX 021120
TAFJAX
TAF
KJAX 021120Z 0212/0312 26009KT P6SM SCT025 SCT250
     FM021900 25011KT P6SM VCTS BKN045CB BKN150 BKN250
      TEMPO 0219/0223 VRB15G30KT 3SM TSRA BR SCT025 BKN040CB OVC090
     FM030000 26008KT P6SM VCSH SCT020 BKN050 OVC120
     FM030300 24004KT P6SM BKN150 BKN250=



000
FTUS42 KJAX 021120
TAFCRG
TAF
KCRG 021120Z 0212/0312 26010KT P6SM SCT025 SCT250
     FM021900 23011KT P6SM VCTS BKN045CB BKN150 BKN250
      TEMPO 0219/0223 VRB15G30KT 3SM TSRA BR SCT025 BKN040CB OVC090
     FM030000 26009KT P6SM VCSH SCT020 BKN050 OVC120
     FM030300 24005KT P6SM BKN150 BKN250=



000
FTUS42 KJAX 021120
TAFSSI
TAF
KSSI 021120Z 0212/0312 25008KT P6SM SCT025 SCT250
     FM021700 18011KT P6SM VCTS BKN045CB BKN150 BKN250
      TEMPO 0218/0222 VRB15G30KT 3SM TSRA BR SCT025 BKN040CB OVC090
     FM022300 26008KT P6SM VCTS SCT020 BKN040CB OVC150
     FM030200 24006KT P6SM BKN150 BKN250=



000
FTUS42 KJAX 021120
TAFGNV
TAF
KGNV 021120Z 0212/0312 27007KT P6SM VCSH SCT025 SCT100 SCT250
     FM021500 27010KT P6SM VCTS BKN045CB BKN150 BKN250
      TEMPO 0215/0219 VRB15G30KT 3SM TSRA BR SCT025 BKN040CB OVC090
     FM022000 27007KT P6SM VCTS SCT020 BKN040CB OVC150
     FM030200 24004KT P6SM BKN150 BKN250=



000
FTUS42 KJAX 020537
TAFGNV
TAF
KGNV 020537Z 0206/0306 24003KT P6SM FEW250
     FM021400 25007KT P6SM SCT025 SCT150 SCT250
     FM021600 24010KT P6SM VCTS BKN045CB BKN150 BKN250 PROB30
      0216/0220 VRB15G30KT 3SM TSRA BR SCT025 BKN040CB OVC090
     FM022100 27007KT P6SM VCSH SCT020 BKN050 OVC120=



000
FTUS42 KJAX 020537
TAFJAX
TAF
KJAX 020537Z 0206/0306 23004KT P6SM FEW250
     FM021400 25008KT P6SM SCT025 SCT150 SCT250
     FM021800 24010KT P6SM VCTS BKN045CB BKN150 BKN250 PROB30
      0218/0222 VRB15G30KT 3SM TSRA BR SCT025 BKN040CB OVC090
     FM022300 27007KT P6SM VCSH SCT020 BKN050 OVC120=



000
FTUS42 KJAX 020537
TAFSSI
TAF
KSSI 020537Z 0206/0306 24007KT P6SM FEW250
     FM021400 23008KT P6SM SCT025 SCT150 SCT250
     FM021700 19011KT P6SM VCTS BKN045CB BKN150 BKN250 PROB30
      0217/0221 VRB15G30KT 3SM TSRA BR SCT025 BKN040CB OVC090
     FM022300 20007KT P6SM VCSH SCT020 BKN050 OVC120=



000
FTUS42 KJAX 020537
TAFCRG
TAF
KCRG 020537Z 0206/0306 23005KT P6SM FEW250
     FM021400 25009KT P6SM SCT025 SCT150 SCT250
     FM021800 24011KT P6SM VCTS BKN045CB BKN150 BKN250 PROB30
      0218/0222 VRB15G30KT 3SM TSRA BR SCT025 BKN040CB OVC090
     FM022300 23008KT P6SM VCSH SCT020 BKN050 OVC120=



000
FTUS42 KJAX 020537
TAFGNV
TAF
KGNV 020537Z 0206/0306 24003KT P6SM FEW250
     FM021400 25007KT P6SM SCT025 SCT150 SCT250
     FM021600 24010KT P6SM VCTS BKN045CB BKN150 BKN250 PROB30
      0216/0220 VRB15G30KT 3SM TSRA BR SCT025 BKN040CB OVC090
     FM022100 27007KT P6SM VCSH SCT020 BKN050 OVC120=



    US Dept of Commerce
    National Oceanic and Atmospheric Administration
    National Weather Service
    1325 East West Highway
    Silver Spring, MD 20910
    Page Author: NWS Internet Services Team
Disclaimer
Information Quality
Credits
Glossary
Privacy Policy
Freedom of Information Act (FOIA)
About Us
Career Opportunities